sensor_id;sensor_type;location;lat;lon;timestamp;P1;durP1;ratioP1;P2;durP2;ratioP2
74939;SDS011;63505;45.226;37.908;2023-03-21T00:01:11;6.57;;;4.38;;
74939;SDS011;63505;45.226;37.908;2023-03-21T00:03:38;12.50;;;6.05;;
74939;SDS011;63505;45.226;37.908;2023-03-21T00:06:04;10.02;;;5.35;;
74939;SDS011;63505;45.226;37.908;2023-03-21T00:08:35;12.88;;;5.43;;
74939;SDS011;63505;45.226;37.908;2023-03-21T00:11:03;14.57;;;6.28;;
74939;SDS011;63505;45.226;37.908;2023-03-21T00:13:31;10.05;;;4.70;;
74939;SDS011;63505;45.226;37.908;2023-03-21T00:16:08;11.23;;;5.68;;
74939;SDS011;63505;45.226;37.908;2023-03-21T00:18:43;18.98;;;5.82;;
74939;SDS011;63505;45.226;37.908;2023-03-21T00:21:12;16.95;;;7.05;;
74939;SDS011;63505;45.226;37.908;2023-03-21T00:23:40;19.77;;;8.05;;
74939;SDS011;63505;45.226;37.908;2023-03-21T00:26:06;13.85;;;5.85;;
74939;SDS011;63505;45.226;37.908;2023-03-21T00:28:35;14.55;;;6.78;;
74939;SDS011;63505;45.226;37.908;2023-03-21T00:31:02;16.27;;;6.40;;
74939;SDS011;63505;45.226;37.908;2023-03-21T00:33:28;11.38;;;5.55;;
74939;SDS011;63505;45.226;37.908;2023-03-21T00:35:54;12.90;;;5.75;;
74939;SDS011;63505;45.226;37.908;2023-03-21T00:38:21;9.40;;;5.57;;
74939;SDS011;63505;45.226;37.908;2023-03-21T00:40:48;9.20;;;5.47;;
74939;SDS011;63505;45.226;37.908;2023-03-21T00:43:14;15.10;;;6.97;;
74939;SDS011;63505;45.226;37.908;2023-03-21T00:45:43;18.00;;;7.28;;
74939;SDS011;63505;45.226;37.908;2023-03-21T00:48:09;17.33;;;6.60;;
74939;SDS011;63505;45.226;37.908;2023-03-21T00:50:35;12.88;;;6.70;;
74939;SDS011;63505;45.226;37.908;2023-03-21T00:53:03;13.18;;;6.25;;
74939;SDS011;63505;45.226;37.908;2023-03-21T00:55:30;14.48;;;5.68;;
74939;SDS011;63505;45.226;37.908;2023-03-21T00:57:55;7.45;;;3.92;;
74939;SDS011;63505;45.226;37.908;2023-03-21T01:00:23;13.93;;;6.93;;
74939;SDS011;63505;45.226;37.908;2023-03-21T01:02:49;14.75;;;6.50;;
74939;SDS011;63505;45.226;37.908;2023-03-21T01:05:25;16.50;;;7.35;;
74939;SDS011;63505;45.226;37.908;2023-03-21T01:08:11;15.88;;;6.55;;
74939;SDS011;63505;45.226;37.908;2023-03-21T01:10:42;13.63;;;7.10;;
74939;SDS011;63505;45.226;37.908;2023-03-21T01:13:11;14.32;;;8.10;;
74939;SDS011;63505;45.226;37.908;2023-03-21T01:15:45;13.25;;;7.15;;
74939;SDS011;63505;45.226;37.908;2023-03-21T01:18:14;17.52;;;6.25;;
74939;SDS011;63505;45.226;37.908;2023-03-21T01:20:41;10.82;;;5.40;;
74939;SDS011;63505;45.226;37.908;2023-03-21T01:23:09;19.85;;;6.15;;
74939;SDS011;63505;45.226;37.908;2023-03-21T01:25:36;16.70;;;7.78;;
74939;SDS011;63505;45.226;37.908;2023-03-21T01:28:02;14.15;;;7.20;;
74939;SDS011;63505;45.226;37.908;2023-03-21T01:30:28;13.38;;;6.60;;
74939;SDS011;63505;45.226;37.908;2023-03-21T01:32:54;16.98;;;6.40;;
74939;SDS011;63505;45.226;37.908;2023-03-21T01:35:20;14.23;;;6.07;;
74939;SDS011;63505;45.226;37.908;2023-03-21T01:37:47;14.68;;;5.88;;
74939;SDS011;63505;45.226;37.908;2023-03-21T01:40:19;10.07;;;4.90;;
74939;SDS011;63505;45.226;37.908;2023-03-21T01:42:56;9.73;;;4.72;;
74939;SDS011;63505;45.226;37.908;2023-03-21T01:48:57;14.55;;;6.38;;
74939;SDS011;63505;45.226;37.908;2023-03-21T01:51:35;8.10;;;4.35;;
74939;SDS011;63505;45.226;37.908;2023-03-21T01:54:05;12.38;;;5.95;;
74939;SDS011;63505;45.226;37.908;2023-03-21T01:56:37;13.02;;;6.40;;
74939;SDS011;63505;45.226;37.908;2023-03-21T01:59:08;7.70;;;4.20;;
74939;SDS011;63505;45.226;37.908;2023-03-21T02:02:31;11.40;;;6.10;;
74939;SDS011;63505;45.226;37.908;2023-03-21T02:05:08;12.30;;;5.65;;
74939;SDS011;63505;45.226;37.908;2023-03-21T02:07:34;13.07;;;6.03;;
74939;SDS011;63505;45.226;37.908;2023-03-21T02:10:07;11.50;;;5.47;;
74939;SDS011;63505;45.226;37.908;2023-03-21T02:12:38;14.05;;;5.95;;
74939;SDS011;63505;45.226;37.908;2023-03-21T02:15:05;21.55;;;6.65;;
74939;SDS011;63505;45.226;37.908;2023-03-21T02:38:17;13.88;;;6.07;;
74939;SDS011;63505;45.226;37.908;2023-03-21T02:47:11;17.08;;;6.45;;
74939;SDS011;63505;45.226;37.908;2023-03-21T02:49:24;11.15;;;4.93;;
74939;SDS011;63505;45.226;37.908;2023-03-21T02:51:55;11.25;;;5.50;;
74939;SDS011;63505;45.226;37.908;2023-03-21T02:54:24;11.93;;;5.70;;
74939;SDS011;63505;45.226;37.908;2023-03-21T02:59:21;9.05;;;4.65;;
74939;SDS011;63505;45.226;37.908;2023-03-21T03:01:50;16.65;;;5.75;;
74939;SDS011;63505;45.226;37.908;2023-03-21T03:04:17;7.43;;;3.88;;
74939;SDS011;63505;45.226;37.908;2023-03-21T03:06:53;11.55;;;5.03;;
74939;SDS011;63505;45.226;37.908;2023-03-21T03:12:44;8.05;;;4.25;;
74939;SDS011;63505;45.226;37.908;2023-03-21T03:18:37;7.88;;;3.22;;
74939;SDS011;63505;45.226;37.908;2023-03-21T03:24:07;7.60;;;3.03;;
74939;SDS011;63505;45.226;37.908;2023-03-21T03:26:54;9.90;;;5.25;;
74939;SDS011;63505;45.226;37.908;2023-03-21T03:29:22;10.23;;;4.15;;
74939;SDS011;63505;45.226;37.908;2023-03-21T03:31:55;7.15;;;3.28;;
74939;SDS011;63505;45.226;37.908;2023-03-21T03:34:24;9.50;;;5.18;;
74939;SDS011;63505;45.226;37.908;2023-03-21T03:36:57;10.10;;;4.63;;
74939;SDS011;63505;45.226;37.908;2023-03-21T03:39:32;14.32;;;4.80;;
74939;SDS011;63505;45.226;37.908;2023-03-21T03:42:04;8.48;;;3.80;;
74939;SDS011;63505;45.226;37.908;2023-03-21T03:44:44;9.93;;;5.63;;
74939;SDS011;63505;45.226;37.908;2023-03-21T03:47:15;16.05;;;6.78;;
74939;SDS011;63505;45.226;37.908;2023-03-21T03:50:00;17.80;;;8.05;;
74939;SDS011;63505;45.226;37.908;2023-03-21T03:53:06;10.18;;;5.40;;
74939;SDS011;63505;45.226;37.908;2023-03-21T03:55:40;10.20;;;4.78;;
74939;SDS011;63505;45.226;37.908;2023-03-21T03:58:11;11.43;;;6.05;;
74939;SDS011;63505;45.226;37.908;2023-03-21T04:00:40;10.73;;;6.05;;
74939;SDS011;63505;45.226;37.908;2023-03-21T04:03:06;14.35;;;6.70;;
74939;SDS011;63505;45.226;37.908;2023-03-21T04:05:34;13.25;;;6.57;;
74939;SDS011;63505;45.226;37.908;2023-03-21T04:08:01;16.60;;;7.85;;
74939;SDS011;63505;45.226;37.908;2023-03-21T04:10:35;20.65;;;6.78;;
74939;SDS011;63505;45.226;37.908;2023-03-21T04:13:00;19.73;;;7.70;;
74939;SDS011;63505;45.226;37.908;2023-03-21T04:15:43;14.70;;;8.20;;
74939;SDS011;63505;45.226;37.908;2023-03-21T04:18:13;19.08;;;7.32;;
74939;SDS011;63505;45.226;37.908;2023-03-21T04:20:39;20.40;;;7.55;;
74939;SDS011;63505;45.226;37.908;2023-03-21T04:23:06;14.50;;;6.85;;
74939;SDS011;63505;45.226;37.908;2023-03-21T04:25:33;15.05;;;7.97;;
74939;SDS011;63505;45.226;37.908;2023-03-21T04:28:02;17.65;;;8.25;;
74939;SDS011;63505;45.226;37.908;2023-03-21T04:30:35;22.85;;;8.75;;
74939;SDS011;63505;45.226;37.908;2023-03-21T04:33:09;18.38;;;7.88;;
74939;SDS011;63505;45.226;37.908;2023-03-21T04:35:35;21.88;;;7.90;;
74939;SDS011;63505;45.226;37.908;2023-03-21T04:38:02;20.35;;;8.38;;
74939;SDS011;63505;45.226;37.908;2023-03-21T04:40:29;17.75;;;8.85;;
74939;SDS011;63505;45.226;37.908;2023-03-21T04:42:55;17.45;;;8.43;;
74939;SDS011;63505;45.226;37.908;2023-03-21T04:45:21;18.45;;;8.82;;
74939;SDS011;63505;45.226;37.908;2023-03-21T04:47:47;17.27;;;8.48;;
74939;SDS011;63505;45.226;37.908;2023-03-21T04:50:14;22.10;;;7.85;;
74939;SDS011;63505;45.226;37.908;2023-03-21T04:52:41;14.57;;;8.20;;
74939;SDS011;63505;45.226;37.908;2023-03-21T04:55:07;18.05;;;8.93;;
74939;SDS011;63505;45.226;37.908;2023-03-21T04:57:35;15.77;;;8.05;;
74939;SDS011;63505;45.226;37.908;2023-03-21T05:00:03;20.00;;;8.57;;
74939;SDS011;63505;45.226;37.908;2023-03-21T05:02:38;18.75;;;8.02;;
74939;SDS011;63505;45.226;37.908;2023-03-21T05:05:05;16.55;;;8.15;;
74939;SDS011;63505;45.226;37.908;2023-03-21T05:07:31;21.50;;;8.23;;
74939;SDS011;63505;45.226;37.908;2023-03-21T05:09:57;15.05;;;8.13;;
74939;SDS011;63505;45.226;37.908;2023-03-21T05:12:23;18.48;;;8.52;;
74939;SDS011;63505;45.226;37.908;2023-03-21T05:14:49;18.38;;;7.28;;
74939;SDS011;63505;45.226;37.908;2023-03-21T05:17:15;18.95;;;8.10;;
74939;SDS011;63505;45.226;37.908;2023-03-21T05:19:50;17.27;;;8.50;;
74939;SDS011;63505;45.226;37.908;2023-03-21T05:22:17;17.13;;;8.13;;
74939;SDS011;63505;45.226;37.908;2023-03-21T05:24:44;18.38;;;7.03;;
74939;SDS011;63505;45.226;37.908;2023-03-21T05:27:28;19.40;;;7.95;;
74939;SDS011;63505;45.226;37.908;2023-03-21T05:30:06;13.27;;;6.93;;
74939;SDS011;63505;45.226;37.908;2023-03-21T05:32:37;19.40;;;8.25;;
74939;SDS011;63505;45.226;37.908;2023-03-21T05:35:07;19.50;;;8.20;;
74939;SDS011;63505;45.226;37.908;2023-03-21T05:37:33;15.40;;;7.22;;
74939;SDS011;63505;45.226;37.908;2023-03-21T05:39:59;17.60;;;7.10;;
74939;SDS011;63505;45.226;37.908;2023-03-21T05:42:29;12.25;;;5.70;;
74939;SDS011;63505;45.226;37.908;2023-03-21T05:44:55;11.07;;;4.72;;
74939;SDS011;63505;45.226;37.908;2023-03-21T05:47:26;10.20;;;4.32;;
74939;SDS011;63505;45.226;37.908;2023-03-21T05:49:54;11.57;;;3.92;;
74939;SDS011;63505;45.226;37.908;2023-03-21T05:52:21;11.13;;;4.20;;
74939;SDS011;63505;45.226;37.908;2023-03-21T05:54:47;8.43;;;4.57;;
74939;SDS011;63505;45.226;37.908;2023-03-21T05:57:13;12.48;;;6.80;;
74939;SDS011;63505;45.226;37.908;2023-03-21T06:00:06;18.05;;;7.18;;
74939;SDS011;63505;45.226;37.908;2023-03-21T06:02:41;16.42;;;6.38;;
74939;SDS011;63505;45.226;37.908;2023-03-21T06:05:26;15.20;;;6.53;;
74939;SDS011;63505;45.226;37.908;2023-03-21T06:07:52;15.02;;;5.57;;
74939;SDS011;63505;45.226;37.908;2023-03-21T06:10:18;22.48;;;7.85;;
74939;SDS011;63505;45.226;37.908;2023-03-21T06:12:47;17.70;;;7.82;;
74939;SDS011;63505;45.226;37.908;2023-03-21T06:15:28;23.88;;;9.00;;
74939;SDS011;63505;45.226;37.908;2023-03-21T06:18:09;19.65;;;8.00;;
74939;SDS011;63505;45.226;37.908;2023-03-21T06:20:37;19.42;;;8.93;;
74939;SDS011;63505;45.226;37.908;2023-03-21T06:23:08;17.38;;;7.97;;
74939;SDS011;63505;45.226;37.908;2023-03-21T06:25:34;22.75;;;8.02;;
74939;SDS011;63505;45.226;37.908;2023-03-21T06:28:00;14.40;;;7.47;;
74939;SDS011;63505;45.226;37.908;2023-03-21T06:30:27;15.30;;;7.75;;
74939;SDS011;63505;45.226;37.908;2023-03-21T06:35:35;13.57;;;6.18;;
74939;SDS011;63505;45.226;37.908;2023-03-21T06:38:01;17.50;;;8.57;;
74939;SDS011;63505;45.226;37.908;2023-03-21T06:40:30;18.65;;;7.55;;
74939;SDS011;63505;45.226;37.908;2023-03-21T06:42:56;16.95;;;7.32;;
74939;SDS011;63505;45.226;37.908;2023-03-21T06:45:22;11.93;;;7.13;;
74939;SDS011;63505;45.226;37.908;2023-03-21T06:47:49;15.20;;;7.25;;
74939;SDS011;63505;45.226;37.908;2023-03-21T06:50:31;16.55;;;7.72;;
74939;SDS011;63505;45.226;37.908;2023-03-21T06:52:57;13.35;;;6.75;;
74939;SDS011;63505;45.226;37.908;2023-03-21T06:55:25;20.45;;;7.47;;
74939;SDS011;63505;45.226;37.908;2023-03-21T06:57:55;17.17;;;5.18;;
74939;SDS011;63505;45.226;37.908;2023-03-21T07:00:24;14.20;;;6.28;;
74939;SDS011;63505;45.226;37.908;2023-03-21T07:02:51;13.68;;;7.00;;
74939;SDS011;63505;45.226;37.908;2023-03-21T07:05:19;14.02;;;4.78;;
74939;SDS011;63505;45.226;37.908;2023-03-21T07:07:45;12.63;;;6.03;;
74939;SDS011;63505;45.226;37.908;2023-03-21T07:10:11;11.57;;;5.10;;
74939;SDS011;63505;45.226;37.908;2023-03-21T07:12:50;10.05;;;5.05;;
74939;SDS011;63505;45.226;37.908;2023-03-21T07:15:21;8.55;;;4.63;;
74939;SDS011;63505;45.226;37.908;2023-03-21T07:17:48;5.70;;;3.08;;
74939;SDS011;63505;45.226;37.908;2023-03-21T07:20:14;8.20;;;2.85;;
74939;SDS011;63505;45.226;37.908;2023-03-21T07:22:40;9.48;;;3.97;;
74939;SDS011;63505;45.226;37.908;2023-03-21T07:25:06;8.27;;;2.92;;
74939;SDS011;63505;45.226;37.908;2023-03-21T07:27:37;4.88;;;2.58;;
74939;SDS011;63505;45.226;37.908;2023-03-21T07:30:03;10.07;;;2.50;;
74939;SDS011;63505;45.226;37.908;2023-03-21T07:32:33;8.27;;;2.13;;
74939;SDS011;63505;45.226;37.908;2023-03-21T07:35:01;6.80;;;2.20;;
74939;SDS011;63505;45.226;37.908;2023-03-21T07:37:26;5.65;;;2.15;;
74939;SDS011;63505;45.226;37.908;2023-03-21T07:39:53;10.48;;;2.90;;
74939;SDS011;63505;45.226;37.908;2023-03-21T07:42:19;4.25;;;2.53;;
74939;SDS011;63505;45.226;37.908;2023-03-21T07:44:45;2.45;;;1.30;;
74939;SDS011;63505;45.226;37.908;2023-03-21T07:47:11;6.88;;;2.40;;
74939;SDS011;63505;45.226;37.908;2023-03-21T07:49:36;6.13;;;2.92;;
74939;SDS011;63505;45.226;37.908;2023-03-21T07:52:03;13.07;;;3.00;;
74939;SDS011;63505;45.226;37.908;2023-03-21T07:54:29;10.50;;;2.70;;
74939;SDS011;63505;45.226;37.908;2023-03-21T07:56:55;5.72;;;2.60;;
74939;SDS011;63505;45.226;37.908;2023-03-21T07:59:21;5.97;;;1.90;;
74939;SDS011;63505;45.226;37.908;2023-03-21T08:01:47;4.78;;;1.55;;
74939;SDS011;63505;45.226;37.908;2023-03-21T08:04:13;3.95;;;1.88;;
74939;SDS011;63505;45.226;37.908;2023-03-21T08:06:40;9.60;;;4.13;;
74939;SDS011;63505;45.226;37.908;2023-03-21T08:09:06;7.50;;;4.68;;
74939;SDS011;63505;45.226;37.908;2023-03-21T08:11:32;3.78;;;1.73;;
74939;SDS011;63505;45.226;37.908;2023-03-21T08:13:58;20.30;;;11.20;;
74939;SDS011;63505;45.226;37.908;2023-03-21T08:16:26;4.88;;;2.38;;
74939;SDS011;63505;45.226;37.908;2023-03-21T08:18:52;7.75;;;3.00;;
74939;SDS011;63505;45.226;37.908;2023-03-21T08:21:18;5.07;;;2.22;;
74939;SDS011;63505;45.226;37.908;2023-03-21T08:23:45;3.17;;;1.50;;
74939;SDS011;63505;45.226;37.908;2023-03-21T08:26:11;5.22;;;1.35;;
74939;SDS011;63505;45.226;37.908;2023-03-21T08:28:40;8.10;;;1.60;;
74939;SDS011;63505;45.226;37.908;2023-03-21T08:31:07;4.45;;;1.08;;
74939;SDS011;63505;45.226;37.908;2023-03-21T08:33:34;3.45;;;1.67;;
74939;SDS011;63505;45.226;37.908;2023-03-21T08:36:03;4.85;;;1.30;;
74939;SDS011;63505;45.226;37.908;2023-03-21T08:38:31;7.32;;;1.50;;
74939;SDS011;63505;45.226;37.908;2023-03-21T08:41:00;3.38;;;1.83;;
74939;SDS011;63505;45.226;37.908;2023-03-21T08:43:29;3.95;;;1.20;;
74939;SDS011;63505;45.226;37.908;2023-03-21T08:45:55;3.38;;;1.73;;
74939;SDS011;63505;45.226;37.908;2023-03-21T08:48:21;7.20;;;1.77;;
74939;SDS011;63505;45.226;37.908;2023-03-21T08:50:47;5.80;;;2.33;;
74939;SDS011;63505;45.226;37.908;2023-03-21T08:53:13;6.20;;;2.50;;
74939;SDS011;63505;45.226;37.908;2023-03-21T08:55:39;3.67;;;2.30;;
74939;SDS011;63505;45.226;37.908;2023-03-21T08:58:05;4.85;;;2.10;;
74939;SDS011;63505;45.226;37.908;2023-03-21T09:00:31;3.97;;;1.63;;
74939;SDS011;63505;45.226;37.908;2023-03-21T09:02:57;4.13;;;1.92;;
74939;SDS011;63505;45.226;37.908;2023-03-21T09:05:23;6.00;;;2.65;;
74939;SDS011;63505;45.226;37.908;2023-03-21T09:07:51;10.15;;;3.30;;
74939;SDS011;63505;45.226;37.908;2023-03-21T09:10:18;5.13;;;2.65;;
74939;SDS011;63505;45.226;37.908;2023-03-21T09:12:47;4.30;;;2.05;;
74939;SDS011;63505;45.226;37.908;2023-03-21T09:15:31;5.97;;;3.70;;
74939;SDS011;63505;45.226;37.908;2023-03-21T09:17:57;20.98;;;10.23;;
74939;SDS011;63505;45.226;37.908;2023-03-21T09:20:37;5.10;;;1.73;;
74939;SDS011;63505;45.226;37.908;2023-03-21T09:23:04;4.68;;;2.20;;
74939;SDS011;63505;45.226;37.908;2023-03-21T09:25:30;6.65;;;3.53;;
74939;SDS011;63505;45.226;37.908;2023-03-21T09:27:57;9.15;;;4.30;;
74939;SDS011;63505;45.226;37.908;2023-03-21T09:30:23;9.32;;;2.72;;
74939;SDS011;63505;45.226;37.908;2023-03-21T09:32:49;5.30;;;2.20;;
74939;SDS011;63505;45.226;37.908;2023-03-21T09:35:17;3.80;;;2.15;;
74939;SDS011;63505;45.226;37.908;2023-03-21T09:37:44;10.38;;;2.60;;
74939;SDS011;63505;45.226;37.908;2023-03-21T09:45:58;6.25;;;2.58;;
74939;SDS011;63505;45.226;37.908;2023-03-21T09:48:31;5.25;;;2.30;;
74939;SDS011;63505;45.226;37.908;2023-03-21T09:51:18;8.90;;;2.88;;
74939;SDS011;63505;45.226;37.908;2023-03-21T09:53:46;8.25;;;3.03;;
74939;SDS011;63505;45.226;37.908;2023-03-21T09:58:48;6.70;;;2.45;;
74939;SDS011;63505;45.226;37.908;2023-03-21T10:01:18;3.88;;;2.50;;
74939;SDS011;63505;45.226;37.908;2023-03-21T10:04:01;7.22;;;2.55;;
74939;SDS011;63505;45.226;37.908;2023-03-21T10:06:30;5.82;;;2.95;;
74939;SDS011;63505;45.226;37.908;2023-03-21T10:09:02;53.10;;;26.08;;
74939;SDS011;63505;45.226;37.908;2023-03-21T10:11:40;11.07;;;4.75;;
74939;SDS011;63505;45.226;37.908;2023-03-21T10:14:15;6.18;;;3.00;;
74939;SDS011;63505;45.226;37.908;2023-03-21T10:16:49;7.68;;;3.45;;
74939;SDS011;63505;45.226;37.908;2023-03-21T10:19:18;3.47;;;2.15;;
74939;SDS011;63505;45.226;37.908;2023-03-21T10:21:46;7.28;;;3.10;;
74939;SDS011;63505;45.226;37.908;2023-03-21T10:24:15;8.50;;;2.50;;
74939;SDS011;63505;45.226;37.908;2023-03-21T10:26:44;4.90;;;2.42;;
74939;SDS011;63505;45.226;37.908;2023-03-21T10:29:11;6.15;;;2.60;;
74939;SDS011;63505;45.226;37.908;2023-03-21T10:31:39;6.97;;;3.17;;
74939;SDS011;63505;45.226;37.908;2023-03-21T10:34:17;7.55;;;3.53;;
74939;SDS011;63505;45.226;37.908;2023-03-21T10:36:44;9.93;;;4.60;;
74939;SDS011;63505;45.226;37.908;2023-03-21T10:39:20;14.23;;;6.13;;
74939;SDS011;63505;45.226;37.908;2023-03-21T10:41:53;10.50;;;5.82;;
74939;SDS011;63505;45.226;37.908;2023-03-21T10:44:19;14.35;;;6.30;;
74939;SDS011;63505;45.226;37.908;2023-03-21T10:46:53;12.48;;;7.28;;
74939;SDS011;63505;45.226;37.908;2023-03-21T10:49:23;14.13;;;6.85;;
74939;SDS011;63505;45.226;37.908;2023-03-21T10:51:54;17.60;;;8.75;;
74939;SDS011;63505;45.226;37.908;2023-03-21T10:54:25;16.45;;;8.95;;
74939;SDS011;63505;45.226;37.908;2023-03-21T10:56:57;29.33;;;9.75;;
74939;SDS011;63505;45.226;37.908;2023-03-21T10:59:34;21.80;;;8.00;;
74939;SDS011;63505;45.226;37.908;2023-03-21T11:02:05;27.13;;;13.00;;
74939;SDS011;63505;45.226;37.908;2023-03-21T11:04:35;16.73;;;7.82;;
74939;SDS011;63505;45.226;37.908;2023-03-21T11:07:03;18.73;;;8.25;;
74939;SDS011;63505;45.226;37.908;2023-03-21T11:09:47;10.50;;;5.07;;
74939;SDS011;63505;45.226;37.908;2023-03-21T11:12:14;13.52;;;5.97;;
74939;SDS011;63505;45.226;37.908;2023-03-21T11:19:47;11.93;;;6.10;;
74939;SDS011;63505;45.226;37.908;2023-03-21T11:22:14;15.40;;;7.03;;
74939;SDS011;63505;45.226;37.908;2023-03-21T11:24:41;15.43;;;7.57;;
74939;SDS011;63505;45.226;37.908;2023-03-21T11:27:17;15.48;;;7.65;;
74939;SDS011;63505;45.226;37.908;2023-03-21T11:29:45;15.52;;;7.95;;
74939;SDS011;63505;45.226;37.908;2023-03-21T11:37:25;15.38;;;8.02;;
74939;SDS011;63505;45.226;37.908;2023-03-21T11:42:57;15.27;;;6.97;;
74939;SDS011;63505;45.226;37.908;2023-03-21T11:45:28;18.05;;;8.65;;
74939;SDS011;63505;45.226;37.908;2023-03-21T11:47:56;13.20;;;7.60;;
74939;SDS011;63505;45.226;37.908;2023-03-21T11:50:28;15.32;;;6.82;;
74939;SDS011;63505;45.226;37.908;2023-03-21T11:53:11;23.23;;;8.30;;
74939;SDS011;63505;45.226;37.908;2023-03-21T11:55:53;14.45;;;6.38;;
74939;SDS011;63505;45.226;37.908;2023-03-21T11:58:40;14.60;;;7.15;;
74939;SDS011;63505;45.226;37.908;2023-03-21T12:04:12;14.35;;;6.70;;
74939;SDS011;63505;45.226;37.908;2023-03-21T12:07:00;17.27;;;8.18;;
74939;SDS011;63505;45.226;37.908;2023-03-21T12:09:36;14.88;;;5.95;;
74939;SDS011;63505;45.226;37.908;2023-03-21T12:17:04;14.55;;;7.32;;
74939;SDS011;63505;45.226;37.908;2023-03-21T12:19:45;17.85;;;6.90;;
74939;SDS011;63505;45.226;37.908;2023-03-21T12:25:26;14.63;;;7.93;;
74939;SDS011;63505;45.226;37.908;2023-03-21T12:30:52;14.43;;;7.10;;
74939;SDS011;63505;45.226;37.908;2023-03-21T12:33:44;12.82;;;6.53;;
74939;SDS011;63505;45.226;37.908;2023-03-21T12:36:35;13.35;;;7.68;;
74939;SDS011;63505;45.226;37.908;2023-03-21T12:45:03;12.85;;;8.25;;
74939;SDS011;63505;45.226;37.908;2023-03-21T12:47:37;14.82;;;7.53;;
74939;SDS011;63505;45.226;37.908;2023-03-21T12:50:24;13.23;;;7.25;;
74939;SDS011;63505;45.226;37.908;2023-03-21T12:52:55;16.77;;;7.88;;
74939;SDS011;63505;45.226;37.908;2023-03-21T12:55:29;11.00;;;6.63;;
74939;SDS011;63505;45.226;37.908;2023-03-21T13:03:25;18.67;;;9.65;;
74939;SDS011;63505;45.226;37.908;2023-03-21T13:05:52;15.23;;;8.02;;
74939;SDS011;63505;45.226;37.908;2023-03-21T13:08:36;16.05;;;7.35;;
74939;SDS011;63505;45.226;37.908;2023-03-21T13:11:03;20.15;;;8.63;;
74939;SDS011;63505;45.226;37.908;2023-03-21T13:13:38;18.38;;;8.38;;
74939;SDS011;63505;45.226;37.908;2023-03-21T13:26:35;15.55;;;7.78;;
74939;SDS011;63505;45.226;37.908;2023-03-21T13:31:54;17.65;;;8.38;;
74939;SDS011;63505;45.226;37.908;2023-03-21T13:34:23;18.08;;;8.80;;
74939;SDS011;63505;45.226;37.908;2023-03-21T13:36:51;20.33;;;9.77;;
74939;SDS011;63505;45.226;37.908;2023-03-21T13:39:26;19.05;;;9.52;;
74939;SDS011;63505;45.226;37.908;2023-03-21T13:41:53;19.48;;;9.32;;
74939;SDS011;63505;45.226;37.908;2023-03-21T13:44:40;21.55;;;10.05;;
74939;SDS011;63505;45.226;37.908;2023-03-21T13:47:22;116.65;;;57.85;;
74939;SDS011;63505;45.226;37.908;2023-03-21T13:55:39;17.67;;;9.35;;
74939;SDS011;63505;45.226;37.908;2023-03-21T14:03:49;15.75;;;7.95;;
74939;SDS011;63505;45.226;37.908;2023-03-21T14:09:35;25.17;;;14.63;;
74939;SDS011;63505;45.226;37.908;2023-03-21T14:12:06;20.15;;;8.80;;
74939;SDS011;63505;45.226;37.908;2023-03-21T14:14:36;20.95;;;11.60;;
74939;SDS011;63505;45.226;37.908;2023-03-21T14:17:22;15.23;;;7.75;;
74939;SDS011;63505;45.226;37.908;2023-03-21T14:19:53;20.52;;;11.05;;
74939;SDS011;63505;45.226;37.908;2023-03-21T14:22:20;15.00;;;8.18;;
74939;SDS011;63505;45.226;37.908;2023-03-21T14:25:33;16.58;;;8.75;;
74939;SDS011;63505;45.226;37.908;2023-03-21T14:27:36;15.57;;;8.75;;
74939;SDS011;63505;45.226;37.908;2023-03-21T14:30:03;19.02;;;7.45;;
74939;SDS011;63505;45.226;37.908;2023-03-21T14:32:30;19.80;;;11.20;;
74939;SDS011;63505;45.226;37.908;2023-03-21T14:34:56;19.30;;;9.60;;
74939;SDS011;63505;45.226;37.908;2023-03-21T14:40:03;30.30;;;15.10;;
74939;SDS011;63505;45.226;37.908;2023-03-21T14:42:34;17.90;;;9.13;;
74939;SDS011;63505;45.226;37.908;2023-03-21T14:45:18;17.67;;;7.65;;
74939;SDS011;63505;45.226;37.908;2023-03-21T14:47:57;14.77;;;8.65;;
74939;SDS011;63505;45.226;37.908;2023-03-21T14:50:33;15.18;;;7.13;;
74939;SDS011;63505;45.226;37.908;2023-03-21T14:53:01;17.15;;;7.55;;
74939;SDS011;63505;45.226;37.908;2023-03-21T14:55:27;15.95;;;8.15;;
74939;SDS011;63505;45.226;37.908;2023-03-21T14:57:54;17.88;;;8.63;;
74939;SDS011;63505;45.226;37.908;2023-03-21T15:00:25;19.02;;;9.02;;
74939;SDS011;63505;45.226;37.908;2023-03-21T15:02:53;22.52;;;7.70;;
74939;SDS011;63505;45.226;37.908;2023-03-21T15:05:24;13.98;;;8.05;;
74939;SDS011;63505;45.226;37.908;2023-03-21T15:08:00;12.52;;;7.47;;
74939;SDS011;63505;45.226;37.908;2023-03-21T15:10:57;14.43;;;7.35;;
74939;SDS011;63505;45.226;37.908;2023-03-21T15:15:54;19.70;;;9.05;;
74939;SDS011;63505;45.226;37.908;2023-03-21T15:18:27;15.52;;;7.97;;
74939;SDS011;63505;45.226;37.908;2023-03-21T15:21:14;29.25;;;11.98;;
74939;SDS011;63505;45.226;37.908;2023-03-21T15:24:14;22.70;;;10.20;;
74939;SDS011;63505;45.226;37.908;2023-03-21T15:26:43;17.80;;;8.20;;
74939;SDS011;63505;45.226;37.908;2023-03-21T15:29:10;16.77;;;7.40;;
74939;SDS011;63505;45.226;37.908;2023-03-21T15:31:38;14.68;;;8.85;;
74939;SDS011;63505;45.226;37.908;2023-03-21T15:34:05;19.05;;;9.75;;
74939;SDS011;63505;45.226;37.908;2023-03-21T15:36:35;22.77;;;10.77;;
74939;SDS011;63505;45.226;37.908;2023-03-21T15:39:10;52.65;;;24.48;;
74939;SDS011;63505;45.226;37.908;2023-03-21T15:41:38;62.55;;;29.95;;
74939;SDS011;63505;45.226;37.908;2023-03-21T15:44:09;20.02;;;12.35;;
74939;SDS011;63505;45.226;37.908;2023-03-21T15:46:42;21.05;;;12.30;;
74939;SDS011;63505;45.226;37.908;2023-03-21T15:51:42;30.08;;;12.90;;
74939;SDS011;63505;45.226;37.908;2023-03-21T15:54:20;24.15;;;14.27;;
74939;SDS011;63505;45.226;37.908;2023-03-21T15:56:52;35.92;;;14.82;;
74939;SDS011;63505;45.226;37.908;2023-03-21T15:59:22;29.60;;;13.77;;
74939;SDS011;63505;45.226;37.908;2023-03-21T16:01:49;30.75;;;15.50;;
74939;SDS011;63505;45.226;37.908;2023-03-21T16:04:16;24.05;;;12.35;;
74939;SDS011;63505;45.226;37.908;2023-03-21T16:06:55;34.90;;;16.08;;
74939;SDS011;63505;45.226;37.908;2023-03-21T16:09:24;47.58;;;22.45;;
74939;SDS011;63505;45.226;37.908;2023-03-21T16:11:54;49.53;;;22.63;;
74939;SDS011;63505;45.226;37.908;2023-03-21T16:14:22;50.15;;;24.90;;
74939;SDS011;63505;45.226;37.908;2023-03-21T16:16:52;48.45;;;22.80;;
74939;SDS011;63505;45.226;37.908;2023-03-21T16:19:18;57.30;;;28.77;;
74939;SDS011;63505;45.226;37.908;2023-03-21T16:21:44;55.70;;;25.90;;
74939;SDS011;63505;45.226;37.908;2023-03-21T16:24:11;57.25;;;25.23;;
74939;SDS011;63505;45.226;37.908;2023-03-21T16:26:41;47.47;;;23.50;;
74939;SDS011;63505;45.226;37.908;2023-03-21T16:29:13;42.15;;;18.98;;
74939;SDS011;63505;45.226;37.908;2023-03-21T16:31:40;32.13;;;15.10;;
74939;SDS011;63505;45.226;37.908;2023-03-21T16:34:06;23.88;;;12.05;;
74939;SDS011;63505;45.226;37.908;2023-03-21T16:36:33;27.10;;;13.05;;
74939;SDS011;63505;45.226;37.908;2023-03-21T16:39:02;22.25;;;12.05;;
74939;SDS011;63505;45.226;37.908;2023-03-21T16:41:41;23.73;;;12.27;;
74939;SDS011;63505;45.226;37.908;2023-03-21T16:44:06;23.63;;;11.57;;
74939;SDS011;63505;45.226;37.908;2023-03-21T16:46:32;22.38;;;12.23;;
74939;SDS011;63505;45.226;37.908;2023-03-21T16:48:58;22.25;;;11.57;;
74939;SDS011;63505;45.226;37.908;2023-03-21T16:51:34;24.58;;;13.15;;